createdAt,value
2022-12-15T00:00:21.001Z,99888.31
2022-12-15T00:03:07.539Z,99895.31
2022-12-15T00:05:53.666Z,99898.03
2022-12-15T00:08:40.191Z,99899.78
2022-12-15T00:11:26.309Z,99894.47
2022-12-15T00:14:12.150Z,99897.09
2022-12-15T00:16:57.775Z,99890.25
2022-12-15T00:19:43.818Z,99891.16
2022-12-15T00:22:29.660Z,99891.06
2022-12-15T00:25:15.534Z,99897.94
2022-12-15T00:28:01.134Z,99897.88
2022-12-15T00:30:49.712Z,99887.50
2022-12-15T00:33:36.093Z,99894.47
2022-12-15T00:36:22.430Z,99897.94
2022-12-15T00:38:49.960Z,99892.72
2022-12-15T00:41:18.600Z,99901.34
2022-12-15T00:43:47.129Z,99905.69
2022-12-15T00:46:33.419Z,99903.22
2022-12-15T00:49:01.486Z,99921.31
2022-12-15T00:51:47.799Z,99918.72
2022-12-15T00:54:34.016Z,99915.13
2022-12-15T00:57:19.671Z,99915.41
2022-12-15T01:00:05.572Z,99905.19
2022-12-15T01:02:52.135Z,99905.34
2022-12-15T01:05:43.843Z,99908.75
2022-12-15T01:08:30.058Z,99908.78
2022-12-15T01:11:19.410Z,99920.97
2022-12-15T01:14:04.933Z,99921.75
2022-12-15T01:16:51.363Z,99920.75
2022-12-15T01:19:37.339Z,99935.53
2022-12-15T01:22:07.349Z,99924.06
2022-12-15T01:24:35.202Z,99938.72
2022-12-15T01:27:02.940Z,99937.81
2022-12-15T01:29:30.667Z,99945.66
2022-12-15T01:31:58.396Z,99943.97
2022-12-15T01:34:26.227Z,99948.22
2022-12-15T01:36:53.737Z,99949.97
2022-12-15T01:39:21.212Z,99950.97
2022-12-15T01:41:48.637Z,99951.09
2022-12-15T01:44:16.031Z,99952.88
2022-12-15T01:46:44.213Z,99962.44
2022-12-15T01:49:20.873Z,99962.34
2022-12-15T01:51:52.520Z,99962.59
2022-12-15T01:54:31.151Z,99962.78
2022-12-15T01:57:07.469Z,99965.38
2022-12-15T01:59:41.065Z,99968.75
2022-12-15T02:02:08.840Z,99976.56
2022-12-15T02:04:37.990Z,99984.31
2022-12-15T02:07:05.696Z,99988.63
2022-12-15T02:09:33.414Z,99985.88
2022-12-15T02:12:13.114Z,100001.50
2022-12-15T02:14:55.610Z,100005.03
2022-12-15T02:17:42.114Z,100001.50
2022-12-15T02:20:28.119Z,100002.38
2022-12-15T02:23:13.902Z,100006.72
2022-12-15T02:26:22.692Z,100000.66
2022-12-15T02:29:28.315Z,100004.25
2022-12-15T02:32:09.713Z,100008.63
2022-12-15T02:34:57.813Z,100011.22
2022-12-15T02:37:34.615Z,100011.38
2022-12-15T02:40:03.559Z,100015.72
2022-12-15T02:42:35.637Z,100020.09
2022-12-15T02:45:07.610Z,100014.88
2022-12-15T02:47:59.340Z,100026.19
2022-12-15T02:51:03.483Z,100034.16
2022-12-15T02:53:43.019Z,100032.41
2022-12-15T02:56:23.952Z,100034.28
2022-12-15T02:59:12.883Z,100036.00
2022-12-15T03:01:44.549Z,100037.81
2022-12-15T03:04:13.245Z,100044.78
2022-12-15T03:06:40.995Z,100043.13
2022-12-15T03:09:08.547Z,100055.41
2022-12-15T03:11:37.222Z,100052.03
2022-12-15T03:14:04.689Z,100052.75
2022-12-15T03:16:32.442Z,100053.69
2022-12-15T03:19:00.417Z,100067.50
2022-12-15T03:21:28.880Z,100068.41
2022-12-15T03:23:56.706Z,100063.97
2022-12-15T03:26:24.633Z,100074.97
2022-12-15T03:28:53.050Z,100081.03
2022-12-15T03:31:20.527Z,100081.31
2022-12-15T03:33:48.081Z,100077.00
2022-12-15T03:36:15.568Z,100086.59
2022-12-15T03:38:43.049Z,100082.44
2022-12-15T03:41:10.463Z,100089.06
2022-12-15T03:43:37.925Z,100084.69
2022-12-15T03:46:05.589Z,100089.38
2022-12-15T03:48:33.345Z,100097.19
2022-12-15T03:51:00.865Z,100082.44
2022-12-15T03:53:28.599Z,100089.53
2022-12-15T03:55:56.244Z,100092.38
2022-12-15T03:58:23.933Z,100108.16
2022-12-15T04:00:51.696Z,100095.91
2022-12-15T04:03:19.389Z,100096.75
2022-12-15T04:05:47.336Z,100102.81
2022-12-15T04:08:15.122Z,100103.38
2022-12-15T04:10:43.654Z,100109.31
2022-12-15T04:13:11.932Z,100117.13
2022-12-15T04:15:40.580Z,100117.88
2022-12-15T04:18:10.137Z,100118.59
2022-12-15T04:20:38.652Z,100124.66
2022-12-15T04:23:09.165Z,100123.09
2022-12-15T04:25:55.759Z,100128.03
2022-12-15T04:28:42.762Z,100124.16
2022-12-15T04:31:31.733Z,100125.78
2022-12-15T04:34:24.070Z,100137.09
2022-12-15T04:37:12.605Z,100139.19
2022-12-15T04:40:03.849Z,100133.91
2022-12-15T04:42:52.222Z,100146.91
2022-12-15T04:45:41.009Z,100141.84
2022-12-15T04:48:27.824Z,100150.28
2022-12-15T04:51:13.963Z,100159.78
2022-12-15T04:54:02.559Z,100161.56
2022-12-15T04:56:50.102Z,100159.88
2022-12-15T04:59:36.474Z,100166.84
2022-12-15T05:02:22.979Z,100157.63
2022-12-15T05:05:09.417Z,100160.50
2022-12-15T05:07:55.166Z,100173.91
2022-12-15T05:10:41.727Z,100180.16
2022-12-15T05:13:27.752Z,100178.81
2022-12-15T05:16:13.772Z,100183.84
2022-12-15T05:18:59.585Z,100178.66
2022-12-15T05:21:45.303Z,100184.94
2022-12-15T05:24:31.045Z,100188.94
2022-12-15T05:27:17.351Z,100198.66
2022-12-15T05:30:03.412Z,100196.91
2022-12-15T05:32:33.090Z,100209.47
2022-12-15T05:35:01.387Z,100196.25
2022-12-15T05:37:28.974Z,100210.09
2022-12-15T05:39:56.707Z,100200.72
2022-12-15T05:42:24.453Z,100207.75
2022-12-15T05:44:52.187Z,100204.34
2022-12-15T05:47:19.729Z,100205.88
2022-12-15T05:49:47.269Z,100208.53
2022-12-15T05:52:14.756Z,100207.69
2022-12-15T05:54:42.554Z,100204.94
2022-12-15T05:57:10.022Z,100213.59
2022-12-15T05:59:37.740Z,100213.44
2022-12-15T06:02:05.571Z,100223.78
2022-12-15T06:04:33.079Z,100220.56
2022-12-15T06:07:00.930Z,100220.56
2022-12-15T06:09:29.194Z,100239.72
2022-12-15T06:11:56.917Z,100238.63
2022-12-15T06:14:24.668Z,100250.97
2022-12-15T06:16:52.243Z,100254.59
2022-12-15T06:19:20.383Z,100246.69
2022-12-15T06:21:48.243Z,100251.75
2022-12-15T06:24:15.824Z,100253.72
2022-12-15T06:26:43.621Z,100261.44
2022-12-15T06:29:13.316Z,100270.16
2022-12-15T06:31:41.876Z,100273.56
2022-12-15T06:34:14.188Z,100273.81
2022-12-15T06:36:42.717Z,100275.47
2022-12-15T06:39:15.185Z,100285.88
2022-12-15T06:41:43.310Z,100283.34
2022-12-15T06:44:14.774Z,100279.28
2022-12-15T06:46:43.275Z,100286.25
2022-12-15T06:49:10.941Z,100290.44
2022-12-15T06:51:38.710Z,100298.41
2022-12-15T06:54:06.239Z,100298.47
2022-12-15T06:56:39.281Z,100299.50
2022-12-15T06:59:07.538Z,100298.59
2022-12-15T07:01:35.487Z,100308.69
2022-12-15T07:04:05.596Z,100310.28
2022-12-15T07:06:37.982Z,100310.34
2022-12-15T07:09:08.477Z,100318.09
2022-12-15T07:11:36.065Z,100316.25
2022-12-15T07:14:04.817Z,100326.66
2022-12-15T07:16:33.019Z,100328.41
2022-12-15T07:19:01.151Z,100325.78
2022-12-15T07:21:28.663Z,100332.88
2022-12-15T07:23:57.501Z,100334.09
2022-12-15T07:26:25.916Z,100334.34
2022-12-15T07:28:54.389Z,100331.69
2022-12-15T07:31:22.873Z,100335.06
2022-12-15T07:33:52.594Z,100337.00
2022-12-15T07:36:20.956Z,100335.03
2022-12-15T07:38:50.655Z,100336.03
2022-12-15T07:41:19.618Z,100339.53
2022-12-15T07:43:48.001Z,100335.19
2022-12-15T07:46:17.146Z,100343.56
2022-12-15T07:48:50.451Z,100349.16
2022-12-15T07:51:22.782Z,100364.66
2022-12-15T07:53:51.396Z,100360.25
2022-12-15T07:56:19.937Z,100357.09
2022-12-15T07:58:48.190Z,100359.13
2022-12-15T08:01:16.961Z,100368.56
2022-12-15T08:03:45.336Z,100372.19
2022-12-15T08:06:14.923Z,100369.78
2022-12-15T08:08:44.586Z,100376.88
2022-12-15T08:11:14.951Z,100378.88
2022-12-15T08:16:36.564Z,100384.75
2022-12-15T08:19:05.547Z,100381.75
2022-12-15T08:21:33.967Z,100391.66
2022-12-15T08:24:01.625Z,100395.25
2022-12-15T08:26:31.092Z,100396.50
2022-12-15T08:31:54.980Z,100408.66
2022-12-15T08:34:22.703Z,100414.16
2022-12-15T08:36:50.307Z,100425.72
2022-12-15T08:39:23.290Z,100428.63
2022-12-15T08:41:51.012Z,100423.81
2022-12-15T08:44:18.897Z,100426.72
2022-12-15T08:46:46.627Z,100432.84
2022-12-15T08:49:19.628Z,100436.97
2022-12-15T08:51:50.675Z,100423.28
2022-12-15T08:54:19.596Z,100435.69
2022-12-15T08:56:47.228Z,100431.53
2022-12-15T08:59:14.768Z,100435.78
2022-12-15T09:01:43.580Z,100433.16
2022-12-15T09:04:11.432Z,100438.38
2022-12-15T09:06:39.573Z,100434.78
2022-12-15T09:09:10.752Z,100442.41
2022-12-15T09:11:38.278Z,100436.66
2022-12-15T09:14:06.944Z,100442.72
2022-12-15T09:16:34.774Z,100439.97
2022-12-15T09:19:03.071Z,100446.16
2022-12-15T09:21:32.035Z,100449.88
2022-12-15T09:24:01.810Z,100460.97
2022-12-15T09:26:31.657Z,100456.56
2022-12-15T09:29:01.876Z,100450.78
2022-12-15T09:31:32.743Z,100458.31
2022-12-15T09:34:01.103Z,100464.69
2022-12-15T09:36:30.566Z,100461.75
2022-12-15T09:38:59.378Z,100462.59
2022-12-15T09:41:30.022Z,100458.25
2022-12-15T09:44:12.117Z,100467.09
2022-12-15T09:46:53.353Z,100465.31
2022-12-15T09:49:23.926Z,100457.28
2022-12-15T09:52:11.095Z,100465.31
2022-12-15T09:54:42.110Z,100455.69
2022-12-15T09:57:34.005Z,100463.06
2022-12-15T10:00:01.680Z,100459.03
2022-12-15T10:02:42.662Z,100458.28
2022-12-15T10:05:50.117Z,100463.44
2022-12-15T10:08:16.374Z,100458.72
2022-12-15T10:11:00.117Z,100470.00
2022-12-15T10:13:39.920Z,100458.91
2022-12-15T10:16:21.676Z,100469.31
2022-12-15T10:19:13.461Z,100473.53
2022-12-15T10:21:42.517Z,100468.94
2022-12-15T10:25:00.312Z,100467.28
2022-12-15T10:27:40.963Z,100464.91
2022-12-15T10:30:11.284Z,100471.06
2022-12-15T10:33:11.662Z,100474.50
2022-12-15T10:35:42.086Z,100471.28
2022-12-15T10:38:31.912Z,100482.28
2022-12-15T10:41:03.578Z,100483.16
2022-12-15T10:43:36.569Z,100494.63
2022-12-15T10:46:15.009Z,100492.78
2022-12-15T10:48:48.576Z,100492.97
2022-12-15T10:51:42.896Z,100488.22
2022-12-15T10:54:10.606Z,100493.41
2022-12-15T10:56:56.504Z,100490.28
2022-12-15T10:59:36.389Z,100493.56
2022-12-15T11:02:25.861Z,100494.44
2022-12-15T11:05:03.361Z,100498.59
2022-12-15T11:07:43.674Z,100499.91
2022-12-15T11:10:28.084Z,100504.81
2022-12-15T11:13:10.736Z,100511.66
2022-12-15T11:15:47.171Z,100510.97
2022-12-15T11:18:35.095Z,100522.47
2022-12-15T11:21:11.877Z,100514.22
2022-12-15T11:23:51.827Z,100522.19
2022-12-15T11:26:38.290Z,100515.28
2022-12-15T11:29:19.091Z,100514.56
2022-12-15T11:31:48.714Z,100508.41
2022-12-15T11:34:33.915Z,100513.53
2022-12-15T11:37:36.271Z,100524.50
2022-12-15T11:40:23.731Z,100521.25
2022-12-15T11:43:09.359Z,100511.19
2022-12-15T11:46:01.430Z,100523.22
2022-12-15T11:49:10.862Z,100529.38
2022-12-15T11:51:50.232Z,100531.78
2022-12-15T11:55:03.826Z,100534.22
2022-12-15T11:58:06.513Z,100539.63
2022-12-15T12:00:44.811Z,100532.81
2022-12-15T12:03:25.121Z,100539.94
2022-12-15T12:05:58.815Z,100544.25
2022-12-15T12:09:01.608Z,100547.94
2022-12-15T12:11:51.458Z,100557.38
2022-12-15T12:14:39.298Z,100550.41
2022-12-15T12:17:28.475Z,100557.41
2022-12-15T12:20:11.218Z,100551.50
2022-12-15T12:23:05.148Z,100549.91
2022-12-15T12:25:43.456Z,100549.09
2022-12-15T12:28:19.411Z,100549.09
2022-12-15T12:30:50.454Z,100550.41
2022-12-15T12:33:33.616Z,100548.22
2022-12-15T12:36:10.557Z,100547.44
2022-12-15T12:38:50.875Z,100551.53
2022-12-15T12:41:37.426Z,100548.31
2022-12-15T12:44:34.853Z,100551.63
2022-12-15T12:47:15.049Z,100545.59
2022-12-15T12:49:50.582Z,100547.47
2022-12-15T12:52:37.013Z,100540.88
2022-12-15T12:55:30.531Z,100538.19
2022-12-15T12:57:58.535Z,100539.38
2022-12-15T13:00:31.710Z,100543.75
2022-12-15T13:03:20.895Z,100548.13
2022-12-15T13:05:50.881Z,100557.28
2022-12-15T13:08:27.520Z,100544.75
2022-12-15T13:10:56.542Z,100546.44
2022-12-15T13:13:33.798Z,100554.19
2022-12-15T13:16:19.141Z,100552.69
2022-12-15T13:18:59.457Z,100551.63
2022-12-15T13:21:42.265Z,100556.28
2022-12-15T13:24:28.509Z,100560.59
2022-12-15T13:27:08.551Z,100568.66
2022-12-15T13:29:53.437Z,100570.44
2022-12-15T13:33:14.659Z,100563.25
2022-12-15T13:35:42.971Z,100567.56
2022-12-15T13:38:19.621Z,100559.88
2022-12-15T13:40:47.157Z,100554.78
2022-12-15T13:43:29.139Z,100564.53
2022-12-15T13:46:00.457Z,100560.88
2022-12-15T13:48:30.986Z,100557.56
2022-12-15T13:50:58.513Z,100564.38
2022-12-15T13:53:31.537Z,100562.88
2022-12-15T13:56:03.937Z,100558.63
2022-12-15T13:58:41.495Z,100559.38
2022-12-15T14:04:17.132Z,100563.13
2022-12-15T14:06:57.738Z,100559.75
2022-12-15T14:09:36.816Z,100566.13
2022-12-15T14:12:08.525Z,100563.41
2022-12-15T14:14:43.480Z,100569.38
2022-12-15T14:17:15.514Z,100571.13
2022-12-15T14:19:46.623Z,100570.50
2022-12-15T14:25:16.946Z,100588.66
2022-12-15T14:27:44.602Z,100587.25
2022-12-15T14:30:22.315Z,100578.69
2022-12-15T14:32:54.635Z,100581.34
2022-12-15T14:35:38.167Z,100577.25
2022-12-15T14:38:14.333Z,100578.06
2022-12-15T14:40:44.131Z,100580.66
2022-12-15T14:43:23.355Z,100584.16
2022-12-15T14:46:05.099Z,100581.50
2022-12-15T14:48:41.459Z,100577.38
2022-12-15T14:51:14.149Z,100580.00
2022-12-15T14:53:47.903Z,100584.44
2022-12-15T14:56:29.763Z,100597.56
2022-12-15T14:59:18.638Z,100607.00
2022-12-15T15:01:58.750Z,100607.69
2022-12-15T15:04:31.158Z,100601.66
2022-12-15T15:07:04.676Z,100596.44
2022-12-15T15:09:39.914Z,100601.66
2022-12-15T15:12:22.994Z,100600.91
2022-12-15T15:15:00.177Z,100595.91
2022-12-15T15:17:42.886Z,100591.66
2022-12-15T15:20:21.807Z,100601.88
2022-12-15T15:23:07.630Z,100604.03
2022-12-15T15:25:40.350Z,100606.78
2022-12-15T15:28:20.111Z,100612.06
2022-12-15T15:31:05.303Z,100607.59
2022-12-15T15:33:33.397Z,100610.91
2022-12-15T15:36:02.958Z,100602.31
2022-12-15T15:38:33.816Z,100607.91
2022-12-15T15:41:31.975Z,100608.59
2022-12-15T15:44:01.642Z,100606.84
2022-12-15T15:46:31.897Z,100606.78
2022-12-15T15:49:07.724Z,100613.56
2022-12-15T15:51:36.248Z,100618.09
2022-12-15T15:54:13.166Z,100612.91
2022-12-15T15:56:41.629Z,100612.13
2022-12-15T15:59:17.700Z,100611.19
2022-12-15T16:01:49.538Z,100610.28
2022-12-15T16:04:17.128Z,100619.75
2022-12-15T16:06:47.649Z,100610.47
2022-12-15T16:09:16.974Z,100616.41
2022-12-15T16:11:46.203Z,100612.06
2022-12-15T16:14:15.376Z,100613.88
2022-12-15T16:16:43.172Z,100618.06
2022-12-15T16:19:14.384Z,100621.63
2022-12-15T16:21:43.037Z,100624.97
2022-12-15T16:24:16.126Z,100630.31
2022-12-15T16:26:48.666Z,100616.41
2022-12-15T16:29:18.767Z,100620.97
2022-12-15T16:31:47.000Z,100620.97
2022-12-15T16:34:16.700Z,100617.47
2022-12-15T16:36:44.991Z,100622.44
2022-12-15T16:39:25.423Z,100621.78
2022-12-15T16:41:54.634Z,100624.16
2022-12-15T16:44:22.967Z,100629.22
2022-12-15T16:46:51.403Z,100631.06
2022-12-15T16:49:20.241Z,100629.34
2022-12-15T16:51:51.313Z,100634.28
2022-12-15T16:54:28.441Z,100634.59
2022-12-15T16:56:59.893Z,100637.28
2022-12-15T16:59:35.840Z,100635.56
2022-12-15T17:02:37.508Z,100643.31
2022-12-15T17:05:06.523Z,100650.00
2022-12-15T17:07:34.283Z,100646.78
2022-12-15T17:10:02.356Z,100652.88
2022-12-15T17:12:30.288Z,100647.72
2022-12-15T17:14:58.451Z,100652.94
2022-12-15T17:17:26.665Z,100655.22
2022-12-15T17:20:27.828Z,100658.00
2022-12-15T17:22:46.010Z,100657.28
2022-12-15T17:25:37.523Z,100653.66
2022-12-15T17:28:15.785Z,100656.91
2022-12-15T17:30:43.915Z,100652.53
2022-12-15T17:33:23.417Z,100659.44
2022-12-15T17:36:00.614Z,100659.47
2022-12-15T17:38:28.831Z,100668.91
2022-12-15T17:40:56.913Z,100669.16
2022-12-15T17:43:32.042Z,100666.38
2022-12-15T17:46:03.104Z,100673.28
2022-12-15T17:48:30.706Z,100680.22
2022-12-15T17:50:58.599Z,100674.88
2022-12-15T17:53:27.789Z,100681.72
2022-12-15T17:55:55.644Z,100688.00
2022-12-15T17:58:26.205Z,100676.97
2022-12-15T18:00:56.163Z,100677.00
2022-12-15T18:03:24.294Z,100678.81
2022-12-15T18:05:53.506Z,100682.38
2022-12-15T18:08:25.868Z,100684.03
2022-12-15T18:10:56.718Z,100682.38
2022-12-15T18:13:29.051Z,100688.28
2022-12-15T18:16:01.731Z,100687.25
2022-12-15T18:18:29.823Z,100689.88
2022-12-15T18:21:03.299Z,100684.66
2022-12-15T18:23:32.251Z,100692.34
2022-12-15T18:26:03.110Z,100688.09
2022-12-15T18:28:33.306Z,100700.97
2022-12-15T18:31:12.871Z,100695.75
2022-12-15T18:33:40.582Z,100685.69
2022-12-15T18:36:09.437Z,100693.34
2022-12-15T18:38:37.486Z,100693.34
2022-12-15T18:41:05.826Z,100683.84
2022-12-15T18:43:34.788Z,100698.44
2022-12-15T18:46:02.335Z,100695.34
2022-12-15T18:48:32.886Z,100686.34
2022-12-15T18:51:02.663Z,100683.59
2022-12-15T18:53:33.828Z,100689.53
2022-12-15T18:56:03.926Z,100692.03
2022-12-15T18:58:33.849Z,100689.53
2022-12-15T19:01:03.019Z,100695.81
2022-12-15T19:03:31.708Z,100702.88
2022-12-15T19:05:59.824Z,100703.78
2022-12-15T19:08:32.027Z,100709.66
2022-12-15T19:11:06.753Z,100712.47
2022-12-15T19:13:37.237Z,100717.50
2022-12-15T19:16:07.660Z,100712.34
2022-12-15T19:18:53.686Z,100716.84
2022-12-15T19:21:44.630Z,100719.44
2022-12-15T19:24:15.270Z,100723.25
2022-12-15T19:26:43.068Z,100728.28
2022-12-15T19:29:16.228Z,100720.34
2022-12-15T19:31:44.291Z,100729.66
2022-12-15T19:34:11.839Z,100729.66
2022-12-15T19:36:40.057Z,100735.59
2022-12-15T19:39:17.975Z,100732.19
2022-12-15T19:41:45.850Z,100736.81
2022-12-15T19:44:17.244Z,100737.75
2022-12-15T19:46:44.959Z,100734.19
2022-12-15T19:49:13.948Z,100741.16
2022-12-15T19:51:43.491Z,100747.19
2022-12-15T19:54:16.798Z,100749.91
2022-12-15T19:56:44.435Z,100749.03
2022-12-15T19:59:22.545Z,100748.31
2022-12-15T20:01:53.519Z,100751.75
2022-12-15T20:04:24.173Z,100752.41
2022-12-15T20:06:52.546Z,100757.66
2022-12-15T20:09:20.666Z,100759.41
2022-12-15T20:11:48.904Z,100762.00
2022-12-15T20:14:17.849Z,100768.06
2022-12-15T20:16:45.930Z,100766.34
2022-12-15T20:19:13.841Z,100774.81
2022-12-15T20:21:41.677Z,100784.16
2022-12-15T20:24:14.984Z,100782.22
2022-12-15T20:26:43.413Z,100795.19
2022-12-15T20:29:29.387Z,100800.75
2022-12-15T20:31:59.107Z,100785.38
2022-12-15T20:34:27.274Z,100789.59
2022-12-15T20:36:55.099Z,100795.66
2022-12-15T20:39:26.792Z,100787.19
2022-12-15T20:41:54.691Z,100791.50
2022-12-15T20:44:23.399Z,100796.66
2022-12-15T20:46:51.426Z,100805.16
2022-12-15T20:49:21.816Z,100819.72
2022-12-15T20:51:49.645Z,100827.34
2022-12-15T20:54:20.694Z,100824.03
2022-12-15T20:56:49.545Z,100831.66
2022-12-15T20:59:18.127Z,100823.06
2022-12-15T21:01:46.979Z,100818.84
2022-12-15T21:04:26.077Z,100816.44
2022-12-15T21:06:55.485Z,100821.66
2022-12-15T21:09:23.838Z,100821.59
2022-12-15T21:11:52.426Z,100827.56
2022-12-15T21:14:23.962Z,100832.84
2022-12-15T21:16:51.811Z,100828.56
2022-12-15T21:19:22.074Z,100823.44
2022-12-15T21:21:55.650Z,100816.63
2022-12-15T21:24:26.381Z,100827.00
2022-12-15T21:26:54.948Z,100827.84
2022-12-15T21:29:25.159Z,100829.56
2022-12-15T21:31:52.983Z,100829.56
2022-12-15T21:34:20.706Z,100826.88
2022-12-15T21:36:52.393Z,100834.69
2022-12-15T21:39:43.059Z,100831.25
2022-12-15T21:42:14.114Z,100841.72
2022-12-15T21:44:42.153Z,100839.19
2022-12-15T21:47:26.297Z,100843.44
2022-12-15T21:49:55.099Z,100842.53
2022-12-15T21:52:26.222Z,100849.31
2022-12-15T21:54:53.979Z,100848.50
2022-12-15T21:57:22.330Z,100845.06
2022-12-15T21:59:50.157Z,100842.47
2022-12-15T22:02:26.633Z,100840.81
2022-12-15T22:04:55.059Z,100850.34
2022-12-15T22:07:22.941Z,100853.78
2022-12-15T22:09:51.799Z,100856.38
2022-12-15T22:12:22.192Z,100861.63
2022-12-15T22:14:49.971Z,100858.16
2022-12-15T22:17:21.728Z,100855.59
2022-12-15T22:19:49.645Z,100867.56
2022-12-15T22:22:17.219Z,100860.78
2022-12-15T22:24:44.986Z,100864.19
2022-12-15T22:27:21.206Z,100869.28
2022-12-15T22:29:50.365Z,100867.63
2022-12-15T22:32:17.832Z,100881.31
2022-12-15T22:34:45.337Z,100883.84
2022-12-15T22:37:12.803Z,100883.78
2022-12-15T22:39:40.387Z,100888.22
2022-12-15T22:42:16.072Z,100891.63
2022-12-15T22:44:44.523Z,100895.03
2022-12-15T22:47:12.265Z,100886.50
2022-12-15T22:49:40.799Z,100904.53
2022-12-15T22:52:17.172Z,100908.78
2022-12-15T22:54:45.988Z,100902.78
2022-12-15T22:57:26.080Z,100903.69
2022-12-15T23:00:03.027Z,100908.78
2022-12-15T23:02:36.916Z,100903.63
2022-12-15T23:05:05.594Z,100905.34
2022-12-15T23:07:33.958Z,100901.13
2022-12-15T23:10:20.966Z,100902.78
2022-12-15T23:12:50.222Z,100901.97
2022-12-15T23:15:37.542Z,100908.84
2022-12-15T23:18:05.521Z,100907.91
2022-12-15T23:20:33.585Z,100927.59
2022-12-15T23:23:01.711Z,100936.13
2022-12-15T23:25:29.806Z,100924.91
2022-12-15T23:27:57.424Z,100919.09
2022-12-15T23:30:25.352Z,100922.56
2022-12-15T23:32:55.215Z,100928.63
2022-12-15T23:35:23.678Z,100934.63
2022-12-15T23:37:51.445Z,100939.75
2022-12-15T23:40:22.273Z,100929.53
2022-12-15T23:42:50.978Z,100928.66
2022-12-15T23:45:19.768Z,100932.97
2022-12-15T23:47:47.287Z,100932.94
2022-12-15T23:50:15.081Z,100940.66
2022-12-15T23:52:42.805Z,100936.41
2022-12-15T23:55:11.159Z,100933.84
2022-12-15T23:57:39.409Z,100933.00
